Time;durP1;ratioP1;P1;durP2;ratioP2;P2;SDS_P1;SDS_P2;PMS_P1;PMS_P2;Temp;Humidity;BMP_temperature;BMP_pressure;BME280_temperature;BME280_humidity;BME280_pressure;Samples;Min_cycle;Max_cycle;Signal;HPM_P1;HPM_P2
2023/08/17 00:02:21;;;;;;;7.17;2.57;;;;;;;15.27;100.00;101791.56;5017475;28;20053;-76
2023/08/17 00:04:46;;;;;;;9.43;2.20;;;;;;;15.30;100.00;101791.22;5028739;28;20763;-76
2023/08/17 00:07:11;;;;;;;7.87;2.83;;;;;;;15.22;100.00;101783.13;5028616;28;20025;-76
2023/08/17 00:09:37;;;;;;;3.47;2.20;;;;;;;15.22;100.00;101788.50;5017974;28;20037;-76
2023/08/17 00:12:02;;;;;;;3.73;2.00;;;;;;;15.24;100.00;101803.50;5009043;28;20119;-76
2023/08/17 00:14:28;;;;;;;3.97;2.63;;;;;;;15.19;100.00;101801.31;5018278;28;20029;-76
2023/08/17 00:16:53;;;;;;;7.23;2.60;;;;;;;15.15;100.00;101789.19;5028862;28;20069;-76
2023/08/17 00:19:18;;;;;;;7.73;2.47;;;;;;;15.10;100.00;101793.38;5003067;28;20040;-76
2023/08/17 00:21:45;;;;;;;4.33;2.20;;;;;;;15.15;100.00;101804.50;5011056;28;20812;-76
2023/08/17 00:24:10;;;;;;;;;;;;;;;15.18;100.00;101809.53;5028735;28;20102;-76
2023/08/17 00:26:36;;;;;;;6.90;2.25;;;;;;;15.13;100.00;101806.50;5010506;28;20364;-76
2023/08/17 00:29:01;;;;;;;7.47;2.23;;;;;;;15.22;100.00;101816.28;5004519;28;20037;-76
2023/08/17 00:31:26;;;;;;;9.23;2.53;;;;;;;15.31;100.00;101826.03;4988183;28;20040;-76
2023/08/17 00:33:52;;;;;;;5.00;1.90;;;;;;;15.25;100.00;101804.34;5010799;28;20030;-76
2023/08/17 00:36:17;;;;;;;5.17;2.10;;;;;;;15.39;100.00;101827.88;4994369;28;20020;-76
2023/08/17 00:38:43;;;;;;;4.43;1.70;;;;;;;15.37;100.00;101819.13;5026453;28;20057;-76
2023/08/17 00:41:08;;;;;;;6.37;2.27;;;;;;;15.45;100.00;101816.41;4994351;28;20487;-76
2023/08/17 00:43:33;;;;;;;6.23;1.80;;;;;;;15.46;100.00;101803.84;5009863;28;20492;-76
2023/08/17 00:45:59;;;;;;;4.40;1.87;;;;;;;15.52;100.00;101809.38;4994283;28;20021;-75
2023/08/17 00:48:26;;;;;;;;;;;;;;;15.55;100.00;101800.13;4987413;28;20018;-76
2023/08/17 00:50:53;;;;;;;5.88;1.92;;;;;;;15.54;100.00;101803.81;4983980;28;19932;-76
2023/08/17 00:53:20;;;;;;;7.50;2.70;;;;;;;15.53;100.00;101797.59;4991669;28;20030;-76
2023/08/17 00:55:45;;;;;;;6.85;2.50;;;;;;;15.54;100.00;101799.25;4993093;28;20020;-76
2023/08/17 00:58:11;;;;;;;3.83;1.83;;;;;;;15.55;100.00;101798.28;4990704;28;20034;-75
2023/08/17 01:00:37;;;;;;;4.50;2.00;;;;;;;15.57;100.00;101798.94;4976714;28;20360;-76
2023/08/17 01:03:03;;;;;;;5.10;2.15;;;;;;;15.47;100.00;101792.88;4991945;28;20173;-76
2023/08/17 01:05:32;;;;;;;3.22;1.50;;;;;;;15.53;100.00;101796.75;4993936;28;20026;-76
2023/08/17 01:07:58;;;;;;;4.55;1.98;;;;;;;15.50;100.00;101787.19;4992437;28;20026;-75
2023/08/17 01:10:31;;;;;;;6.45;1.75;;;;;;;15.46;100.00;101783.13;4992051;28;20029;-76
2023/08/17 01:13:02;;;;;;;8.27;2.15;;;;;;;15.45;100.00;101783.28;5019450;28;20068;-76
2023/08/17 01:15:36;;;;;;;3.50;1.80;;;;;;;15.38;100.00;101772.38;5009496;28;20840;-76
2023/08/17 01:18:15;;;;;;;3.00;1.65;;;;;;;15.41;100.00;101785.50;5009404;28;20036;-75
2023/08/17 01:20:41;;;;;;;3.35;1.90;;;;;;;15.37;100.00;101776.91;5026039;28;20037;-76
2023/08/17 01:23:07;;;;;;;5.45;2.28;;;;;;;15.40;100.00;101781.97;5001555;28;20388;-76
2023/08/17 01:25:38;;;;;;;5.75;2.22;;;;;;;15.38;100.00;101777.75;4991679;28;20030;-76
2023/08/17 01:28:04;;;;;;;8.15;2.30;;;;;;;15.35;100.00;101775.41;5006430;28;20030;-76
2023/08/17 01:30:44;;;;;;;3.55;1.98;;;;;;;15.36;100.00;101772.56;4990355;28;20508;-76
2023/08/17 01:33:13;;;;;;;5.18;2.55;;;;;;;15.40;100.00;101781.09;4974004;28;20030;-76
2023/08/17 01:35:59;;;;;;;4.90;1.73;;;;;;;15.36;100.00;101763.66;5000257;28;20029;-75
2023/08/17 01:38:26;;;;;;;5.07;1.70;;;;;;;15.34;100.00;101765.66;5036937;22;20045;-71
2023/08/17 01:40:53;;;;;;;5.07;2.00;;;;;;;15.34;100.00;101755.72;5009292;28;20028;-72
2023/08/17 01:43:19;;;;;;;3.85;1.90;;;;;;;15.33;100.00;101754.03;4989136;28;20042;-72
2023/08/17 01:45:45;;;;;;;;;;;;;;;15.34;100.00;101760.28;4993567;28;20399;-72
2023/08/17 01:48:11;;;;;;;5.03;1.50;;;;;;;15.30;100.00;101750.84;4999364;28;19914;-72
2023/08/17 01:50:36;;;;;;;5.50;2.07;;;;;;;15.23;100.00;101749.84;4966224;28;20038;-72
2023/08/17 01:53:02;;;;;;;5.93;2.15;;;;;;;15.20;100.00;101751.88;4999793;28;20061;-71
2023/08/17 01:55:31;;;;;;;4.73;1.67;;;;;;;15.24;100.00;101746.13;4982842;28;20019;-72
2023/08/17 01:57:57;;;;;;;6.05;2.10;;;;;;;15.25;100.00;101745.16;4972595;28;20069;-72
2023/08/17 02:00:22;;;;;;;5.83;1.93;;;;;;;15.28;100.00;101744.81;4982917;28;20085;-72
2023/08/17 02:02:47;;;;;;;4.13;1.73;;;;;;;15.31;100.00;101750.69;4975165;28;20029;-72
2023/08/17 02:05:13;;;;;;;9.40;2.70;;;;;;;15.28;100.00;101745.63;4989020;28;20038;-72
2023/08/17 02:07:38;;;;;;;7.00;2.00;;;;;;;15.30;100.00;101758.94;5005255;28;20042;-73
2023/08/17 02:10:04;;;;;;;5.10;1.70;;;;;;;15.32;100.00;101764.97;4993335;28;20365;-72
2023/08/17 02:12:31;;;;;;;7.88;2.83;;;;;;;15.35;100.00;101759.25;5004856;28;20057;-72
2023/08/17 02:14:56;;;;;;;6.17;1.73;;;;;;;15.36;100.00;101752.88;4966128;28;20111;-73
2023/08/17 02:17:22;;;;;;;6.70;2.15;;;;;;;15.37;100.00;101751.84;4982117;28;20053;-72
2023/08/17 02:19:47;;;;;;;7.10;2.03;;;;;;;15.37;100.00;101754.56;4990574;28;20045;-72
2023/08/17 02:22:14;;;;;;;9.20;2.47;;;;;;;15.37;100.00;101762.63;4982409;28;20051;-73
2023/08/17 02:24:39;;;;;;;7.65;2.78;;;;;;;15.41;100.00;101777.44;5004847;28;20018;-72
2023/08/17 02:27:04;;;;;;;7.27;2.60;;;;;;;15.46;100.00;101777.75;4964664;28;20597;-72
2023/08/17 02:29:30;;;;;;;5.80;2.73;;;;;;;15.40;100.00;101783.81;4952452;28;20035;-72
2023/08/17 02:31:55;;;;;;;6.40;2.35;;;;;;;15.39;100.00;101780.28;4990427;28;20504;-72
2023/08/17 02:34:21;;;;;;;4.70;2.73;;;;;;;15.40;100.00;101789.19;4988392;28;20397;-72
2023/08/17 02:36:46;;;;;;;5.63;2.10;;;;;;;15.39;100.00;101780.28;4984834;28;20397;-72
2023/08/17 02:39:11;;;;;;;8.07;2.90;;;;;;;15.40;100.00;101787.34;5005454;28;20033;-72
2023/08/17 02:41:37;;;;;;;9.90;2.63;;;;;;;15.40;100.00;101791.88;4984590;28;20277;-73
2023/08/17 02:44:02;;;;;;;3.63;2.30;;;;;;;15.41;100.00;101790.88;4986642;28;20844;-72
2023/08/17 02:46:28;;;;;;;8.30;2.33;;;;;;;15.36;100.00;101794.06;4979600;28;20045;-72
2023/08/17 02:48:53;;;;;;;7.03;2.43;;;;;;;15.34;100.00;101782.63;4954774;28;20408;-72
2023/08/17 02:51:19;;;;;;;5.85;2.72;;;;;;;15.33;100.00;101789.00;4971957;28;20300;-72
2023/08/17 02:53:44;;;;;;;4.80;2.93;;;;;;;15.30;100.00;101791.22;5003555;28;20068;-72
2023/08/17 02:56:12;;;;;;;6.63;2.70;;;;;;;15.27;100.00;101797.78;5003829;28;20072;-72
2023/08/17 02:58:40;;;;;;;9.27;3.58;;;;;;;15.26;100.00;101789.84;4985349;28;20057;-73
2023/08/17 03:01:07;;;;;;;9.18;3.80;;;;;;;15.32;100.00;101789.19;4986321;28;20045;-72
2023/08/17 03:03:32;;;;;;;8.25;4.00;;;;;;;15.29;100.00;101789.50;4987620;28;20060;-72
2023/08/17 03:05:58;;;;;;;7.78;3.67;;;;;;;15.31;100.00;101792.88;4989304;28;20429;-72
2023/08/17 03:08:23;;;;;;;7.67;3.17;;;;;;;15.33;100.00;101790.88;4984442;28;20572;-72
2023/08/17 03:10:48;;;;;;;7.80;4.37;;;;;;;15.32;100.00;101799.97;4987366;28;20048;-72
2023/08/17 03:13:16;;;;;;;10.57;3.80;;;;;;;15.30;100.00;101794.75;4986369;28;20088;-72
2023/08/17 03:15:42;;;;;;;9.88;4.22;;;;;;;15.34;100.00;101797.94;5004880;28;20034;-72
2023/08/17 03:18:08;;;;;;;11.20;4.10;;;;;;;15.35;100.00;101800.44;4987322;28;20068;-72
2023/08/17 03:20:33;;;;;;;17.40;5.23;;;;;;;15.40;100.00;101806.19;5001851;28;20073;-72
2023/08/17 03:22:58;;;;;;;16.10;5.00;;;;;;;15.41;100.00;101798.94;5003858;28;20048;-72
2023/08/17 03:25:24;;;;;;;10.03;4.20;;;;;;;15.41;100.00;101797.09;4987161;28;20028;-72
2023/08/17 03:27:49;;;;;;;6.20;4.20;;;;;;;15.40;100.00;101797.25;4972409;28;20045;-72
2023/08/17 03:30:15;;;;;;;7.38;3.80;;;;;;;15.41;100.00;101788.19;4985964;28;20032;-72
2023/08/17 03:32:40;;;;;;;11.07;4.00;;;;;;;15.47;100.00;101790.19;4985529;28;20509;-72
2023/08/17 03:35:06;;;;;;;16.23;3.90;;;;;;;15.44;100.00;101787.84;4971122;28;20468;-72
2023/08/17 03:37:32;;;;;;;11.35;3.90;;;;;;;15.45;100.00;101781.44;4988857;28;20455;-72
2023/08/17 03:39:57;;;;;;;7.57;3.93;;;;;;;15.41;100.00;101786.34;4976446;28;20045;-72
2023/08/17 03:42:23;;;;;;;10.30;3.40;;;;;;;15.46;100.00;101790.38;4989537;28;20115;-72
2023/08/17 03:44:48;;;;;;;18.63;5.20;;;;;;;15.52;100.00;101795.06;4990558;28;20570;-72
2023/08/17 03:47:14;;;;;;;6.33;2.90;;;;;;;15.50;100.00;101789.88;5008290;28;20045;-72
2023/08/17 03:49:40;;;;;;;6.90;4.05;;;;;;;15.51;100.00;101785.31;5005114;28;20038;-72
2023/08/17 03:52:05;;;;;;;9.90;3.70;;;;;;;15.54;100.00;101785.81;4989618;28;20037;-72
2023/08/17 03:54:31;;;;;;;13.57;4.10;;;;;;;15.59;100.00;101778.09;4990007;28;20037;-72
2023/08/17 03:56:56;;;;;;;8.97;3.93;;;;;;;15.55;100.00;101773.22;4975986;28;20022;-72
2023/08/17 03:59:21;;;;;;;10.60;4.33;;;;;;;15.57;100.00;101777.41;4990737;28;20511;-72
2023/08/17 04:01:47;;;;;;;10.00;4.27;;;;;;;15.58;100.00;101767.47;4988451;28;20255;-72
2023/08/17 04:04:13;;;;;;;6.97;3.20;;;;;;;15.60;100.00;101766.28;4989116;28;20037;-73
2023/08/17 04:06:40;;;;;;;8.70;3.47;;;;;;;15.67;100.00;101771.84;4988830;28;20080;-72
2023/08/17 04:09:06;;;;;;;11.80;4.20;;;;;;;15.72;100.00;101765.97;4988581;28;20036;-72
2023/08/17 04:11:35;;;;;;;11.70;4.03;;;;;;;15.70;100.00;101758.06;4973364;28;20022;-72
2023/08/17 04:14:00;;;;;;;10.07;4.25;;;;;;;15.76;100.00;101772.72;4982043;28;20289;-72
2023/08/17 04:16:26;;;;;;;9.47;3.83;;;;;;;15.81;100.00;101767.63;4988667;28;20032;-73
2023/08/17 04:18:51;;;;;;;12.43;4.20;;;;;;;15.84;100.00;101772.66;4976118;28;20037;-73
2023/08/17 04:21:17;;;;;;;11.37;3.83;;;;;;;15.86;100.00;101772.50;4990321;28;20033;-73
2023/08/17 04:23:42;;;;;;;7.30;3.57;;;;;;;15.87;100.00;101769.63;4988971;28;20804;-73
2023/08/17 04:26:07;;;;;;;8.27;4.13;;;;;;;15.89;100.00;101773.00;4988778;28;20045;-73
2023/08/17 04:28:34;;;;;;;10.40;3.90;;;;;;;15.93;100.00;101770.81;4987140;28;20041;-73
2023/08/17 04:30:59;;;;;;;10.00;5.10;;;;;;;15.98;100.00;101773.81;5007209;28;20037;-72
2023/08/17 04:33:28;;;;;;;9.73;4.07;;;;;;;16.01;100.00;101774.31;4989083;28;20069;-73
2023/08/17 04:35:53;;;;;;;12.47;4.87;;;;;;;16.06;100.00;101772.94;4975868;28;20168;-72
2023/08/17 04:38:18;;;;;;;8.17;4.37;;;;;;;16.02;100.00;101781.38;5005240;28;20022;-72
2023/08/17 04:40:45;;;;;;;8.07;4.35;;;;;;;16.03;100.00;101783.03;4986551;28;20392;-73
2023/08/17 04:43:10;;;;;;;11.30;4.25;;;;;;;16.09;100.00;101786.06;5005639;28;20049;-73
2023/08/17 04:45:36;;;;;;;10.07;4.32;;;;;;;16.14;100.00;101791.78;4988559;28;20497;-72
2023/08/17 04:48:01;;;;;;;11.57;3.53;;;;;;;16.15;100.00;101790.75;4983203;28;20544;-73
2023/08/17 04:50:28;;;;;;;13.32;4.00;;;;;;;16.17;100.00;101796.81;4971081;28;20022;-72
2023/08/17 04:52:54;;;;;;;10.97;3.90;;;;;;;16.14;100.00;101794.47;4972914;28;20109;-72
2023/08/17 04:55:19;;;;;;;11.37;3.33;;;;;;;16.19;100.00;101800.19;4989146;28;20982;-73
2023/08/17 04:57:44;;;;;;;11.05;3.53;;;;;;;16.21;100.00;101795.47;4987945;28;20041;-72
2023/08/17 05:00:13;;;;;;;9.13;3.00;;;;;;;16.17;100.00;101788.72;4973267;28;20018;-72
2023/08/17 05:02:39;;;;;;;9.75;2.63;;;;;;;16.21;100.00;101788.22;4987153;28;20057;-73
2023/08/17 05:05:06;;;;;;;;;;;;;;;16.28;100.00;101796.44;4988350;28;20018;-73
2023/08/17 05:07:32;;;;;;;8.32;2.97;;;;;;;16.29;100.00;101784.63;4986443;28;20011;-73
2023/08/17 05:09:57;;;;;;;8.15;3.35;;;;;;;16.34;100.00;101784.97;4975032;28;20132;-72
2023/08/17 05:12:23;;;;;;;6.03;2.60;;;;;;;16.38;100.00;101797.06;4986490;28;20129;-72
2023/08/17 05:14:49;;;;;;;10.03;3.37;;;;;;;16.44;100.00;101796.38;5004595;28;20365;-73
2023/08/17 05:17:14;;;;;;;6.93;2.67;;;;;;;16.44;100.00;101785.59;4988258;28;20280;-73
2023/08/17 05:19:41;;;;;;;9.70;2.30;;;;;;;16.45;100.00;101784.56;4987628;28;20033;-72
2023/08/17 05:22:10;;;;;;;6.53;1.98;;;;;;;16.53;100.00;101788.22;4987350;28;20603;-73
2023/08/17 05:24:36;;;;;;;5.25;1.67;;;;;;;16.52;100.00;101781.16;4986516;28;20076;-72
2023/08/17 05:27:01;;;;;;;11.57;2.50;;;;;;;16.61;100.00;101786.34;4988496;28;20026;-73
2023/08/17 05:29:26;;;;;;;10.43;2.38;;;;;;;16.61;100.00;101780.94;4986247;28;20110;-73
2023/08/17 05:31:52;;;;;;;5.00;2.42;;;;;;;16.59;100.00;101772.19;4990263;28;20572;-72
2023/08/17 05:34:18;;;;;;;3.00;1.90;;;;;;;16.64;100.00;101779.75;4987861;28;20021;-72
2023/08/17 05:36:43;;;;;;;7.47;2.10;;;;;;;16.63;100.00;101778.09;4986937;28;20133;-72
2023/08/17 05:39:09;;;;;;;7.07;2.13;;;;;;;16.61;100.00;101769.31;4970595;28;20040;-73
2023/08/17 05:41:35;;;;;;;7.35;3.58;;;;;;;16.65;100.00;101776.06;4986003;28;20444;-73
2023/08/17 05:44:00;;;;;;;3.77;1.87;;;;;;;16.58;100.00;101775.91;4954305;28;20084;-72
2023/08/17 05:46:26;;;;;;;5.20;1.65;;;;;;;16.59;100.00;101777.56;5017720;28;20080;-73
2023/08/17 05:48:51;;;;;;;5.13;1.60;;;;;;;16.66;100.00;101772.31;5002874;28;20022;-73
2023/08/17 05:51:17;;;;;;;4.50;2.43;;;;;;;16.60;100.00;101767.63;5004492;28;20034;-72
2023/08/17 05:53:42;;;;;;;9.60;2.57;;;;;;;16.68;100.00;101768.44;4984569;28;20042;-73
2023/08/17 05:56:07;;;;;;;5.20;1.97;;;;;;;16.64;100.00;101760.88;4985761;28;20034;-73
2023/08/17 05:58:33;;;;;;;5.37;2.00;;;;;;;16.70;100.00;101764.72;4985879;28;20491;-72
2023/08/17 06:01:09;;;;;;;4.90;1.40;;;;;;;16.67;100.00;101763.22;4971846;28;20543;-72
2023/08/17 06:03:36;;;;;;;3.42;1.60;;;;;;;16.80;100.00;101763.50;4985241;28;20037;-73
2023/08/17 06:06:02;;;;;;;5.95;1.65;;;;;;;16.80;100.00;101766.19;4959312;28;20030;-73
2023/08/17 06:08:28;;;;;;;4.93;2.13;;;;;;;16.70;100.00;101757.47;5001438;28;20698;-73
2023/08/17 06:10:53;;;;;;;6.83;2.13;;;;;;;16.76;100.00;101764.00;5018526;28;20109;-72
2023/08/17 06:13:19;;;;;;;6.63;1.83;;;;;;;16.80;100.00;101776.97;4985604;28;20041;-73
2023/08/17 06:15:44;;;;;;;4.93;2.00;;;;;;;16.78;100.00;101770.88;4985344;28;20034;-72
2023/08/17 06:18:09;;;;;;;5.07;1.87;;;;;;;16.87;100.00;101779.81;4986192;28;20072;-73
2023/08/17 06:20:35;;;;;;;4.13;1.90;;;;;;;16.93;100.00;101784.50;4984659;28;20504;-72
2023/08/17 06:23:00;;;;;;;8.23;2.53;;;;;;;16.82;100.00;101784.91;4967586;28;20101;-72
2023/08/17 06:25:25;;;;;;;4.17;1.97;;;;;;;16.90;100.00;101789.41;5001108;28;20026;-72
2023/08/17 06:27:51;;;;;;;7.70;2.23;;;;;;;16.85;100.00;101798.84;5001965;28;20516;-72
2023/08/17 06:30:17;;;;;;;5.47;2.05;;;;;;;16.94;100.00;101807.75;5004349;28;20443;-73
2023/08/17 06:32:43;;;;;;;8.57;2.38;;;;;;;16.95;100.00;101793.25;4984321;28;20042;-72
2023/08/17 06:35:08;;;;;;;7.30;2.67;;;;;;;16.88;100.00;101798.53;4986373;28;20034;-72
2023/08/17 06:37:34;;;;;;;5.05;1.88;;;;;;;16.99;100.00;101807.22;4984889;28;20520;-72
2023/08/17 06:39:59;;;;;;;4.00;2.15;;;;;;;16.94;100.00;101802.34;5003275;28;20477;-73
2023/08/17 06:42:25;;;;;;;2.80;2.00;;;;;;;17.00;100.00;101812.44;5002195;28;20061;-72
2023/08/17 06:44:50;;;;;;;5.53;2.33;;;;;;;17.03;100.00;101816.63;4970158;28;20034;-73
2023/08/17 06:47:15;;;;;;;12.33;3.57;;;;;;;17.02;100.00;101818.50;4984985;28;20476;-73
2023/08/17 06:49:41;;;;;;;3.67;2.33;;;;;;;17.02;100.00;101826.59;4984271;28;20171;-72
2023/08/17 06:52:06;;;;;;;8.73;1.70;;;;;;;17.03;100.00;101839.03;4985349;28;20096;-72
2023/08/17 06:54:35;;;;;;;4.37;1.87;;;;;;;17.11;100.00;101851.63;5001412;28;20053;-73
2023/08/17 06:57:00;;;;;;;9.68;2.25;;;;;;;17.13;100.00;101849.59;4984052;28;20037;-71
2023/08/17 06:59:26;;;;;;;6.93;1.75;;;;;;;17.24;100.00;101845.66;5000767;28;20022;-73
2023/08/17 07:01:52;;;;;;;5.70;1.95;;;;;;;17.01;100.00;101829.44;5003677;28;20091;-72
2023/08/17 07:04:17;;;;;;;8.93;2.87;;;;;;;16.77;100.00;101842.03;4985590;28;20064;-73
2023/08/17 07:06:43;;;;;;;7.00;2.27;;;;;;;16.75;100.00;101854.03;4983985;28;20085;-72
2023/08/17 07:09:08;;;;;;;6.13;2.20;;;;;;;16.90;100.00;101867.63;4985372;28;20030;-71
2023/08/17 07:11:34;;;;;;;7.07;2.33;;;;;;;16.97;100.00;101868.59;5001653;28;20038;-73
2023/08/17 07:13:59;;;;;;;3.17;2.00;;;;;;;17.07;100.00;101866.53;4986965;28;20025;-72
2023/08/17 07:16:24;;;;;;;7.40;2.37;;;;;;;17.10;100.00;101866.16;5005228;28;20117;-73
2023/08/17 07:18:50;;;;;;;3.70;2.47;;;;;;;17.11;100.00;101869.69;5001774;28;20084;-72
2023/08/17 07:21:15;;;;;;;3.90;2.10;;;;;;;17.12;100.00;101874.09;4985774;28;20124;-73
2023/08/17 07:23:44;;;;;;;8.27;2.20;;;;;;;17.17;100.00;101883.31;4985302;28;20029;-73
2023/08/17 07:26:09;;;;;;;9.80;2.25;;;;;;;16.86;100.00;101857.19;4985724;28;20033;-73
2023/08/17 07:28:35;;;;;;;6.47;2.70;;;;;;;16.96;100.00;101872.31;5004939;28;20026;-72
2023/08/17 07:31:00;;;;;;;6.80;2.40;;;;;;;17.00;100.00;101870.94;5005520;28;20128;-72
2023/08/17 07:33:25;;;;;;;4.10;2.27;;;;;;;17.16;100.00;101897.84;5003852;28;20030;-72
2023/08/17 07:35:53;;;;;;;7.97;2.27;;;;;;;17.18;100.00;101893.06;4985477;28;20030;-72
2023/08/17 07:38:18;;;;;;;5.93;2.13;;;;;;;17.26;100.00;101906.53;5005195;28;20556;-72
2023/08/17 07:40:43;;;;;;;7.93;2.30;;;;;;;17.36;100.00;101913.56;5003992;28;20128;-72
2023/08/17 07:43:09;;;;;;;7.90;2.73;;;;;;;17.41;100.00;101908.44;5004026;28;20026;-72
2023/08/17 07:45:34;;;;;;;5.83;3.30;;;;;;;17.51;100.00;101901.81;4983626;28;20405;-72
2023/08/17 07:47:59;;;;;;;6.03;2.13;;;;;;;17.57;100.00;101905.63;4977313;28;20038;-72
2023/08/17 07:50:25;;;;;;;6.43;3.03;;;;;;;17.51;100.00;101884.75;4987739;28;20030;-72
2023/08/17 07:52:50;;;;;;;7.00;2.47;;;;;;;17.38;100.00;101877.25;4986105;28;20061;-72
2023/08/17 07:55:15;;;;;;;12.70;3.43;;;;;;;17.27;100.00;101878.50;4986400;28;20033;-71
2023/08/17 07:57:41;;;;;;;6.33;2.83;;;;;;;17.24;100.00;101888.84;5003280;28;20033;-72
2023/08/17 08:00:07;;;;;;;6.50;2.88;;;;;;;17.12;100.00;101892.97;5005127;28;20395;-72
2023/08/17 08:02:35;;;;;;;6.03;3.08;;;;;;;17.13;100.00;101902.72;5002541;28;20481;-72
2023/08/17 08:05:00;;;;;;;6.67;2.40;;;;;;;17.11;100.00;101908.28;5005092;28;20030;-72
2023/08/17 08:07:26;;;;;;;9.23;3.73;;;;;;;17.05;100.00;101906.31;5004315;28;20826;-71
2023/08/17 08:09:51;;;;;;;7.00;3.50;;;;;;;16.96;100.00;101904.69;5004121;28;20029;-72
2023/08/17 08:12:16;;;;;;;5.33;2.83;;;;;;;16.89;100.00;101901.84;5003601;28;20077;-71
2023/08/17 08:14:42;;;;;;;7.20;3.33;;;;;;;16.86;100.00;101894.94;4983108;28;20800;-73
2023/08/17 08:17:07;;;;;;;8.80;3.50;;;;;;;16.80;100.00;101898.34;5004950;28;20030;-74
2023/08/17 08:19:32;;;;;;;7.87;4.10;;;;;;;16.68;100.00;101899.72;5003679;28;20068;-72
2023/08/17 08:21:58;;;;;;;10.80;4.20;;;;;;;16.83;100.00;101914.19;4982457;28;20033;-72
2023/08/17 08:24:23;;;;;;;7.93;4.35;;;;;;;16.90;100.00;101914.31;4986707;28;20034;-71
2023/08/17 08:26:50;;;;;;;9.80;4.20;;;;;;;16.97;100.00;101914.44;5005648;28;20062;-72
2023/08/17 08:29:16;;;;;;;5.70;3.70;;;;;;;16.99;100.00;101918.66;4987319;28;20318;-71
2023/08/17 08:31:41;;;;;;;8.20;3.97;;;;;;;17.03;100.00;101916.44;5003512;28;20037;-72
2023/08/17 08:34:07;;;;;;;11.07;4.07;;;;;;;16.98;100.00;101914.28;4987664;28;20428;-71
2023/08/17 08:36:32;;;;;;;9.87;4.77;;;;;;;17.06;100.00;101918.78;5003857;28;20281;-72
2023/08/17 08:38:57;;;;;;;11.60;4.70;;;;;;;17.08;100.00;101911.34;5001434;28;20034;-71
2023/08/17 08:41:26;;;;;;;11.90;4.37;;;;;;;17.06;100.00;101908.81;5002976;28;20072;-73
2023/08/17 08:43:51;;;;;;;7.97;4.30;;;;;;;17.11;100.00;101893.97;4981672;28;20034;-71
2023/08/17 08:46:18;;;;;;;11.60;5.00;;;;;;;17.11;100.00;101894.81;5000251;28;20026;-72
2023/08/17 08:48:47;;;;;;;16.23;6.05;;;;;;;17.19;100.00;101902.03;4998944;28;20053;-72
2023/08/17 08:51:18;;;;;;;11.00;5.30;;;;;;;17.23;100.00;101893.41;5004596;28;20567;-73
2023/08/17 08:53:45;;;;;;;9.85;4.72;;;;;;;17.17;100.00;101894.09;4979211;28;20042;-71
2023/08/17 08:56:15;;;;;;;15.35;5.97;;;;;;;17.17;100.00;101885.19;4969316;28;20258;-71
2023/08/17 08:58:41;;;;;;;11.15;6.38;;;;;;;17.18;100.00;101889.53;4985569;28;20030;-72
2023/08/17 09:01:09;;;;;;;9.02;5.10;;;;;;;17.18;100.00;101894.94;4985726;28;20112;-71
2023/08/17 09:03:35;;;;;;;11.98;5.03;;;;;;;17.32;100.00;101899.56;5002319;28;20060;-70
2023/08/17 09:06:01;;;;;;;10.43;6.05;;;;;;;17.26;100.00;101901.13;5004476;28;20026;-71
2023/08/17 09:08:29;;;;;;;;;;;;;;;17.30;100.00;101894.38;5003952;28;20030;-71
2023/08/17 09:10:54;;;;;;;13.65;5.25;;;;;;;17.40;100.00;101896.81;4969891;28;19914;-71
2023/08/17 09:13:20;;;;;;;9.65;5.25;;;;;;;17.27;100.00;101894.69;5004488;28;20044;-72
2023/08/17 09:15:45;;;;;;;14.67;6.70;;;;;;;17.29;100.00;101897.22;4984780;28;20026;-71
2023/08/17 09:18:11;;;;;;;10.33;5.87;;;;;;;17.17;100.00;101898.66;4986042;28;20037;-71
2023/08/17 09:20:45;;;;;;;11.35;6.25;;;;;;;17.21;100.00;101900.00;4984664;28;20120;-71
2023/08/17 09:23:21;;;;;;;15.48;5.43;;;;;;;17.20;100.00;101899.13;5004105;28;20030;-71
2023/08/17 09:25:48;;;;;;;9.07;5.20;;;;;;;17.14;100.00;101891.78;5001973;28;20128;-72
2023/08/17 09:28:16;;;;;;;17.60;6.95;;;;;;;17.13;100.00;101895.47;4986181;28;20029;-72
2023/08/17 09:30:52;;;;;;;11.95;6.10;;;;;;;17.08;100.00;101878.97;4984765;28;20061;-72
2023/08/17 09:33:18;;;;;;;15.15;6.25;;;;;;;17.13;100.00;101895.47;5003339;28;20448;-71
2023/08/17 09:35:43;;;;;;;12.95;6.35;;;;;;;17.11;100.00;101885.88;4984282;28;20049;-72
2023/08/17 09:38:09;;;;;;;13.27;6.22;;;;;;;17.15;100.00;101896.13;4982591;28;20238;-72
2023/08/17 09:40:34;;;;;;;10.97;6.10;;;;;;;17.13;100.00;101894.63;4992926;28;20489;-72
2023/08/17 09:43:02;;;;;;;10.27;5.75;;;;;;;17.14;100.00;101889.06;4997043;28;20432;-71
2023/08/17 09:45:27;;;;;;;14.85;6.88;;;;;;;17.15;100.00;101879.94;4997393;28;20391;-71
2023/08/17 09:47:52;;;;;;;11.80;6.37;;;;;;;17.08;100.00;101884.38;4986888;28;20109;-73
2023/08/17 09:50:22;;;;;;;23.67;6.57;;;;;;;17.15;100.00;101888.03;4980290;28;20491;-74
2023/08/17 09:52:47;;;;;;;12.20;6.10;;;;;;;17.10;100.00;101876.94;4999770;28;20139;-72
2023/08/17 09:55:14;;;;;;;13.57;6.77;;;;;;;17.14;100.00;101877.41;5001722;28;20394;-72
2023/08/17 09:57:41;;;;;;;17.40;6.38;;;;;;;17.11;100.00;101878.63;4996707;28;20290;-73
2023/08/17 10:00:07;;;;;;;12.45;6.20;;;;;;;17.14;100.00;101878.28;4981505;28;20018;-71
2023/08/17 10:02:33;;;;;;;12.73;6.60;;;;;;;17.17;100.00;101877.09;4986735;28;20037;-73
2023/08/17 10:05:00;;;;;;;12.93;6.45;;;;;;;17.20;100.00;101869.44;4966248;28;20018;-72
2023/08/17 10:07:30;;;;;;;13.40;7.10;;;;;;;17.23;100.00;101877.22;5005537;28;20025;-72
2023/08/17 10:10:06;;;;;;;15.23;7.15;;;;;;;17.28;100.00;101872.09;4997130;28;20038;-73
2023/08/17 10:12:45;;;;;;;20.33;6.45;;;;;;;17.30;100.00;101870.06;4979279;28;20034;-72
2023/08/17 10:15:13;;;;;;;16.20;6.10;;;;;;;17.40;100.00;101869.84;4994490;28;20033;-72
2023/08/17 10:17:53;;;;;;;12.52;6.88;;;;;;;17.45;100.00;101861.19;4961811;28;20030;-72
2023/08/17 10:20:20;;;;;;;14.45;6.78;;;;;;;17.52;100.00;101865.69;5000626;28;20036;-73
2023/08/17 10:22:47;;;;;;;;;;;;;;;17.62;100.00;101865.41;4994220;28;20026;-71
2023/08/17 10:25:13;;;;;;;13.27;5.65;;;;;;;17.55;100.00;101861.78;5001340;28;19917;-72
2023/08/17 10:27:41;;;;;;;10.07;5.85;;;;;;;17.61;100.00;101862.94;5005371;28;20500;-73
2023/08/17 10:30:09;;;;;;;15.68;7.30;;;;;;;17.68;100.00;101855.78;5002487;28;20041;-72
2023/08/17 10:32:35;;;;;;;10.88;6.03;;;;;;;17.64;100.00;101841.78;4997623;28;20033;-72
2023/08/17 10:35:02;;;;;;;13.73;7.53;;;;;;;17.77;100.00;101846.56;4987722;28;20080;-73
2023/08/17 10:37:28;;;;;;;11.02;6.45;;;;;;;17.83;100.00;101850.44;4992958;28;20084;-73
2023/08/17 10:39:54;;;;;;;13.93;6.25;;;;;;;17.93;100.00;101837.47;5005474;28;20038;-73
2023/08/17 10:42:34;;;;;;;9.97;5.90;;;;;;;17.87;100.00;101841.78;5000619;28;20072;-73
2023/08/17 10:45:03;;;;;;;10.70;6.05;;;;;;;18.08;100.00;101840.22;4973404;28;20045;-74
2023/08/17 10:47:32;;;;;;;8.80;5.70;;;;;;;18.16;100.00;101841.97;4968819;28;20061;-74
2023/08/17 10:50:01;;;;;;;10.13;5.65;;;;;;;18.25;100.00;101849.81;4982060;28;20030;-72
2023/08/17 10:52:32;;;;;;;10.23;5.50;;;;;;;18.34;100.00;101835.16;4988391;28;20244;-74
2023/08/17 10:55:05;;;;;;;13.95;6.18;;;;;;;18.26;100.00;101826.31;5005230;28;20046;-72
2023/08/17 10:57:31;;;;;;;11.07;6.43;;;;;;;18.18;100.00;101829.13;4969857;28;20133;-74
2023/08/17 11:00:26;;;;;;;7.78;5.03;;;;;;;18.23;100.00;101821.28;5005613;28;20028;-74
2023/08/17 11:03:00;;;;;;;13.23;6.03;;;;;;;18.14;100.00;101816.00;5002611;28;20038;-74
2023/08/17 11:05:58;;;;;;;13.00;6.63;;;;;;;18.24;100.00;101815.72;4997935;28;20501;-73
2023/08/17 11:08:34;;;;;;;13.20;5.53;;;;;;;18.19;100.00;101814.56;4940677;28;20054;-74
2023/08/17 11:11:06;;;;;;;9.57;5.55;;;;;;;18.27;100.00;101811.78;5004513;28;20029;-74
2023/08/17 11:13:39;;;;;;;8.07;6.07;;;;;;;18.16;100.00;101809.56;4999835;28;20120;-73
2023/08/17 11:16:06;;;;;;;12.93;5.38;;;;;;;18.17;100.00;101808.50;4994043;28;20069;-73